< < Back
Terminal Aerodrome Forecast


Current Version              Previous Versions:   1  2  3  4  5  6  7  8  9  

Terminal Aerodrome Forecast

933
FTUS44 KHUN 192328
TAFHSV
TAF
KHSV 192328Z 2000/2024 VRB04KT P6SM VCSH OVC120
     FM200500 VRB03KT 6SM -RA BR OVC040
      TEMPO 2006/2008 4SM -RA BR OVC020
     FM201400 01005KT P6SM SCT040 BKN120=

Latest METAR

249
SAUS80 KWBC 200100 RRA
MTRHSV
METAR KHSV 200053Z 02006KT 10SM OVC100 06/M01 A3019 RMK AO2 SLP223
T00561011


USA.gov is the U.S. government's official web portal to all federal, state and local government web resources and services.